Gorham, NH (03581)

9:01 AM EST on February 07, 2016 (GMT -0500)
Berlin Norwegian village | | Change Station
CLOSE
Current Station
Personal Weather Station
Location: Berlin, NH
Elevation: 1099 ft
Nearby Weather Stations

Elev 1099 ft 44.48 °N, 71.17 °W | Updated 6 seconds ago

Overcast
Overcast
32.5 °F
Feels Like 30 °F
N
3.1
Wind Variable Wind from East
Gusts 6.0 mph

Today
High -- | Low -- °F
--% Chance of Precip.
Yesterday
High -- | Low -- °F
Precip. -- in
Pressure 30.11 in
Visibility 10.0 miles
Clouds Scattered Clouds 3400 ft
Overcast 5000 ft
Windchill 30 °F
Dew Point 17 °F
Humidity 53%
Rainfall 0.00 in
Snow Depth Not available.
6:57 AM 5:02 PM
Waning Crescent, 1% visible
METAR KHIE 071352Z AUTO 21006KT 10SM SCT034 OVC050 01/M07 A3007 RMK AO2 SLP196 T00061072
Pressure 30.11 in
Visibility 10.0 miles
Clouds Scattered Clouds 3400 ft
Overcast 5000 ft
Windchill 30 °F
Dew Point 17 °F
Humidity 53%
Rainfall 0.00 in
Snow Depth Not available.
6:57 AM 5:02 PM
Waning Crescent, 1% visible
METAR KHIE 071352Z AUTO 21006KT 10SM SCT034 OVC050 01/M07 A3007 RMK AO2 SLP196 T00061072

10-Day Weather Forecast

Almanac

Astronomy

Feb. 07, 2016 Rise Set
Actual Time
Civil Twilight
Nautical Twilight
Astronomical Twilight
Moon
Length of Visible Light
Length of Day
Tomorrow will be .
, % of the Moon is Illuminated

Today's Extremes

State Highs State Lows

Community

WunderPhotos

Upload Photos

1,891,204 photos uploaded!

WunderBlog® & News

Nearby

Air Quality

  Air Quality AQ Index Pollutant
Not available.

Snow Depth

Station Depth Elevation

Earthquake Activity

City Distance Mag. Time & Date
Minimum magnitude displayed is 2.5.

Coastal Water Temperatures

Place Temperature

Stations

Nearby Weather Stations

Station Location Temp. Windchill Dew Point Humidity Wind Precip. Elev Updated Type
                   

Watches & Warnings

There are currently no watches in effect.